Overview Statistics Trail Chart Weather Telemetry Raw packets
 

This is the latest recevied weather packets stored in our database for station/object OM6ACB-6. If no packets are shown the sender has not sent any weather packets the latest 10 day(s).

<< 53 54 55 56 57 58 >>
Time Temp. Humidity Pressure Rain* Wind** Luminosity Snow
1787840996 26.11° C 20% 1024.3 hPa 0 mm - - -
1787840395 29.44° C 20% 1024.5 hPa 0 mm - - -
1787839795 27.78° C 20% 1024.2 hPa 0 mm - - -
1787839195 27.78° C 20% 1024.2 hPa 0 mm - - -
1787838594 27.78° C 20% 1024.2 hPa 0 mm - - -
1787837994 28.33° C 20% 1024.4 hPa 0 mm - - -
1787837394 28.89° C 20% 1024.4 hPa 0 mm - - -
1787836793 27.78° C 20% 1024.4 hPa 0 mm - - -
1787836193 27.22° C 20% 1024.5 hPa 0 mm - - -
1787835593 27.78° C 20% 1024.5 hPa 0 mm - - -
1787834993 26.11° C 20% 1024.3 hPa 0 mm - - -
1787834392 27.22° C 20% 1024.4 hPa 0 mm - - -
1787833792 27.22° C 20% 1024.6 hPa 0 mm - - -
1787833192 27.78° C 20% 1024.6 hPa 0 mm - - -
1787832591 27.22° C 20% 1024.8 hPa 0 mm - - -
1787831991 27.22° C 20% 1024.8 hPa 0 mm - - -
1787831391 26.11° C 20% 1024.7 hPa 0 mm - - -
1787830791 26.67° C 20% 1024.9 hPa 0 mm - - -
1787830190 25.56° C 20% 1024.9 hPa 0 mm - - -
1787829590 25° C 20% 1024.8 hPa 0 mm - - -
1787828990 25.56° C 20% 1024.8 hPa 0 mm - - -
1787828389 23.89° C 21% 1024.7 hPa 0 mm - - -
1787827789 25° C 20% 1024.7 hPa 0 mm - - -
1787827189 24.44° C 20% 1024.7 hPa 0 mm - - -
1787826588 26.67° C 20% 1025.1 hPa 0 mm - - -

* Rain latest hour (hover to see other rain measurements)
** Current wind speed in m/s (hover to see current wind gust speed)